Bachir Chihani — 7TJA — position and weather

sailwx.info

Track history (hours):
 
Tides and Currents Weather Stations Pressure Air Temp Water Temp Dewpoint Dewpoint Depression Visibility Wind Speed Wind Dir Waves Ship Positions

Bachir Chihani

Last reported at 2015-Jul-29 18:20 UTC. Time now 2015-Jul-30 02:08 UTC.
Position N 35°53' E 014°31'.

Length 280 m; draft 9.6 m.

Type: Ship (hazmat cat C). MMSI: 605106010.

Date/timePositionNaut miles runAvg speedWind from/ knotsBaromVisibWave heightAir tempDewpointWater temp
2015-Jul-29 18:20N 35°53' E 014°31'0 0.0
2015-Jul-29 17:32N 35°53' E 014°31'0 0.0
2015-Jul-29 16:32N 35°53' E 014°31'0 0.0
2015-Jul-29 15:29N 35°53' E 014°31'0 0.0
2015-Jul-29 14:32N 35°53' E 014°31'0 0.0
2015-Jul-29 13:29N 35°53' E 014°31'0 0.0
2015-Jul-29 10:29N 35°53' E 014°31'0 0.0
2015-Jul-28 19:08N 35°53' E 014°31'0 0.0
2015-Jul-28 18:32N 35°53' E 014°31'0 0.0
2015-Jul-28 17:20N 35°53' E 014°31'0 0.0
2015-Jul-28 16:23N 35°53' E 014°31'0 0.0
2015-Jul-28 15:32N 35°53' E 014°31'0 0.0
2015-Jul-28 14:32N 35°53' E 014°31'0 0.0
2015-Jul-28 13:32N 35°53' E 014°31'0 0.0
2015-Jul-28 12:32N 35°53' E 014°31'0 0.0
2015-Jul-28 11:32N 35°53' E 014°31'0 0.0
2015-Jul-27 18:14N 35°53' E 014°31'0 0.0
2015-Jul-27 17:32N 35°53' E 014°31'0 0.0
2015-Jul-27 16:26N 35°53' E 014°31'0 0.0
2015-Jul-27 10:20N 35°53' E 014°31'0 0.0
2015-Jul-26 17:11N 35°53' E 014°31'0 0.0
2015-Jul-26 16:26N 35°53' E 014°31'0 0.0
2015-Jul-26 15:32N 35°53' E 014°31'0 0.0
2015-Jul-26 14:32N 35°53' E 014°31'0 0.0
2015-Jul-26 13:32N 35°53' E 014°31'0 0.0
2015-Jul-26 12:20N 35°53' E 014°31'0 0.0
2015-Jul-26 11:32N 35°53' E 014°31'0 0.0
2015-Jul-26 10:26N 35°53' E 014°31'0 0.0
2015-Jul-26 08:20N 35°53' E 014°31'0 0.0
2015-Jul-24 21:20N 35°53' E 014°31'0 0.0
2015-Jul-24 20:26N 35°53' E 014°31'0 0.0
2015-Jul-23 00:23N 35°53' E 014°31'0 0.0
2015-Jul-22 22:26N 35°53' E 014°31'0 0.0
2015-Jul-22 20:32N 35°53' E 014°31'0 0.0
2015-Jul-22 19:20N 35°53' E 014°31'0 0.0
2015-Jul-22 15:05N 35°53' E 014°31'0 0.0
2015-Jul-22 08:29N 35°53' E 014°31'0 0.0
2015-Jul-22 07:11N 35°53' E 014°31'0 0.0
2015-Jul-22 06:20N 35°53' E 014°31'0 0.0
2015-Jul-22 05:20N 35°53' E 014°31'0 0.0
2015-Jul-22 04:32N 35°53' E 014°31'0 0.0
2015-Jul-22 01:20N 35°53' E 014°31'0 0.0
2015-Jul-22 00:29N 35°53' E 014°31'0 0.0
2015-Jul-21 21:29N 35°53' E 014°31'0 0.0
2015-Jul-21 20:32N 35°53' E 014°31'0 0.0
2015-Jul-21 19:32N 35°53' E 014°31'0 0.0
2015-Jul-21 18:26N 35°53' E 014°31'0 0.0
2015-Jul-21 17:32N 35°53' E 014°31'0 0.0
2015-Jul-21 16:32N 35°53' E 014°31'0 0.0
2015-Jul-21 15:32N 35°53' E 014°31'0 0.0
2015-Jul-21 14:32N 35°53' E 014°31'0 0.0
2015-Jul-21 13:33N 35°53' E 014°31'0 0.2
2015-Jul-21 12:33N 35°53' E 014°31'2 2.4
2015-Jul-21 11:34N 35°55' E 014°33'0 0.4
2015-Jul-21 10:33N 35°55' E 014°33'2 2.0
2015-Jul-21 09:33N 35°57' E 014°34'1 0.6
2015-Jul-21 08:33N 35°57' E 014°35'1 0.9
2015-Jul-21 07:33N 35°56' E 014°34'1 0.6
2015-Jul-21 06:33N 35°56' E 014°34'0 0.3
2015-Jul-21 05:34N 35°56' E 014°34'2 2.3
2015-Jul-21 04:33N 35°56' E 014°37'2 2.2
2015-Jul-21 03:33N 35°57' E 014°39'2 1.9
2015-Jul-21 02:33N 35°58' E 014°41'2 2.2
2015-Jul-21 01:34N 36°01' E 014°41'2 2.0
2015-Jul-21 00:33N 36°02' E 014°42'2 1.9
2015-Jul-20 23:33N 36°04' E 014°43'2 1.7
2015-Jul-20 22:33N 36°04' E 014°45'2 1.9
2015-Jul-20 21:34N 36°02' E 014°46'2 2.0
2015-Jul-20 20:33N 36°01' E 014°48'2 1.8
2015-Jul-20 19:33N 35°59' E 014°49'1 1.2
2015-Jul-20 18:33N 35°59' E 014°47'2 1.7
2015-Jul-20 17:33N 36°00' E 014°46'2 1.7
2015-Jul-20 16:33N 36°02' E 014°45'2 1.7
2015-Jul-20 15:33N 36°03' E 014°44'2 1.9
2015-Jul-20 14:33N 36°05' E 014°43'1 1.3
2015-Jul-20 13:33N 36°06' E 014°44'2 2.2
2015-Jul-20 12:33N 36°06' E 014°46'1 1.2
2015-Jul-20 11:33N 36°05' E 014°47'1 1.4
2015-Jul-20 10:33N 36°04' E 014°47'1 1.4
2015-Jul-20 09:33N 36°02' E 014°48'1 1.4
2015-Jul-20 08:33N 36°01' E 014°48'1 1.5
2015-Jul-20 07:33N 35°60' E 014°48'1 1.3
2015-Jul-20 06:33N 36°00' E 014°47'2 2.1
2015-Jul-20 05:33N 36°02' E 014°45'2 2.1
2015-Jul-20 04:32N 36°04' E 014°44'2 1.8
2015-Jul-20 03:33N 36°05' E 014°43'1 1.1
2015-Jul-20 02:34N 36°07' E 014°43'2 2.2
2015-Jul-20 01:33N 36°06' E 014°46'2 1.8
2015-Jul-20 00:33N 36°06' E 014°48'2 2.0
2015-Jul-19 23:27N 36°03' E 014°48'2 2.1
2015-Jul-19 22:34N 36°02' E 014°48'2 1.9
2015-Jul-19 21:33N 35°60' E 014°48'1 0.9
2015-Jul-19 20:33N 35°59' E 014°47'2 1.4
2015-Jul-19 19:18N 36°00' E 014°45'1 1.7
2015-Jul-19 18:34N 36°01' E 014°44'  
Track history (hours):
 
Tides and Currents Weather Stations Pressure Air Temp Water Temp Dewpoint Dewpoint Depression Visibility Wind Speed Wind Dir Waves Ship Positions

Bachir Chihani

Last reported at 2015-Jul-29 18:20 UTC. Time now 2015-Jul-30 02:08 UTC.
Position N 35°53' E 014°31'.

Length 280 m; draft 9.6 m.

Type: Ship (hazmat cat C). MMSI: 605106010.

Date/timePositionNaut miles runAvg speedWind from/ knotsBaromVisibWave heightAir tempDewpointWater temp
2015-Jul-29 18:20N 35°53' E 014°31'0 0.0
2015-Jul-29 17:32N 35°53' E 014°31'0 0.0
2015-Jul-29 16:32N 35°53' E 014°31'0 0.0
2015-Jul-29 15:29N 35°53' E 014°31'0 0.0
2015-Jul-29 14:32N 35°53' E 014°31'0 0.0
2015-Jul-29 13:29N 35°53' E 014°31'0 0.0
2015-Jul-29 10:29N 35°53' E 014°31'0 0.0
2015-Jul-28 19:08N 35°53' E 014°31'0 0.0
2015-Jul-28 18:32N 35°53' E 014°31'0 0.0
2015-Jul-28 17:20N 35°53' E 014°31'0 0.0
2015-Jul-28 16:23N 35°53' E 014°31'0 0.0
2015-Jul-28 15:32N 35°53' E 014°31'0 0.0
2015-Jul-28 14:32N 35°53' E 014°31'0 0.0
2015-Jul-28 13:32N 35°53' E 014°31'0 0.0
2015-Jul-28 12:32N 35°53' E 014°31'0 0.0
2015-Jul-28 11:32N 35°53' E 014°31'0 0.0
2015-Jul-27 18:14N 35°53' E 014°31'0 0.0
2015-Jul-27 17:32N 35°53' E 014°31'0 0.0
2015-Jul-27 16:26N 35°53' E 014°31'0 0.0
2015-Jul-27 10:20N 35°53' E 014°31'0 0.0
2015-Jul-26 17:11N 35°53' E 014°31'0 0.0
2015-Jul-26 16:26N 35°53' E 014°31'0 0.0
2015-Jul-26 15:32N 35°53' E 014°31'0 0.0
2015-Jul-26 14:32N 35°53' E 014°31'0 0.0
2015-Jul-26 13:32N 35°53' E 014°31'0 0.0
2015-Jul-26 12:20N 35°53' E 014°31'0 0.0
2015-Jul-26 11:32N 35°53' E 014°31'0 0.0
2015-Jul-26 10:26N 35°53' E 014°31'0 0.0
2015-Jul-26 08:20N 35°53' E 014°31'0 0.0
2015-Jul-24 21:20N 35°53' E 014°31'0 0.0
2015-Jul-24 20:26N 35°53' E 014°31'0 0.0
2015-Jul-23 00:23N 35°53' E 014°31'0 0.0
2015-Jul-22 22:26N 35°53' E 014°31'0 0.0
2015-Jul-22 20:32N 35°53' E 014°31'0 0.0
2015-Jul-22 19:20N 35°53' E 014°31'0 0.0
2015-Jul-22 15:05N 35°53' E 014°31'0 0.0
2015-Jul-22 08:29N 35°53' E 014°31'0 0.0
2015-Jul-22 07:11N 35°53' E 014°31'0 0.0
2015-Jul-22 06:20N 35°53' E 014°31'0 0.0
2015-Jul-22 05:20N 35°53' E 014°31'0 0.0
2015-Jul-22 04:32N 35°53' E 014°31'0 0.0
2015-Jul-22 01:20N 35°53' E 014°31'0 0.0
2015-Jul-22 00:29N 35°53' E 014°31'0 0.0
2015-Jul-21 21:29N 35°53' E 014°31'0 0.0
2015-Jul-21 20:32N 35°53' E 014°31'0 0.0
2015-Jul-21 19:32N 35°53' E 014°31'0 0.0
2015-Jul-21 18:26N 35°53' E 014°31'0 0.0
2015-Jul-21 17:32N 35°53' E 014°31'0 0.0
2015-Jul-21 16:32N 35°53' E 014°31'0 0.0
2015-Jul-21 15:32N 35°53' E 014°31'0 0.0
2015-Jul-21 14:32N 35°53' E 014°31'0 0.0
2015-Jul-21 13:33N 35°53' E 014°31'0 0.2
2015-Jul-21 12:33N 35°53' E 014°31'2 2.4
2015-Jul-21 11:34N 35°55' E 014°33'0 0.4
2015-Jul-21 10:33N 35°55' E 014°33'2 2.0
2015-Jul-21 09:33N 35°57' E 014°34'1 0.6
2015-Jul-21 08:33N 35°57' E 014°35'1 0.9
2015-Jul-21 07:33N 35°56' E 014°34'1 0.6
2015-Jul-21 06:33N 35°56' E 014°34'0 0.3
2015-Jul-21 05:34N 35°56' E 014°34'2 2.3
2015-Jul-21 04:33N 35°56' E 014°37'2 2.2
2015-Jul-21 03:33N 35°57' E 014°39'2 1.9
2015-Jul-21 02:33N 35°58' E 014°41'2 2.2
2015-Jul-21 01:34N 36°01' E 014°41'2 2.0
2015-Jul-21 00:33N 36°02' E 014°42'2 1.9
2015-Jul-20 23:33N 36°04' E 014°43'2 1.7
2015-Jul-20 22:33N 36°04' E 014°45'2 1.9
2015-Jul-20 21:34N 36°02' E 014°46'2 2.0
2015-Jul-20 20:33N 36°01' E 014°48'2 1.8
2015-Jul-20 19:33N 35°59' E 014°49'1 1.2
2015-Jul-20 18:33N 35°59' E 014°47'2 1.7
2015-Jul-20 17:33N 36°00' E 014°46'2 1.7
2015-Jul-20 16:33N 36°02' E 014°45'2 1.7
2015-Jul-20 15:33N 36°03' E 014°44'2 1.9
2015-Jul-20 14:33N 36°05' E 014°43'1 1.3
2015-Jul-20 13:33N 36°06' E 014°44'2 2.2
2015-Jul-20 12:33N 36°06' E 014°46'1 1.2
2015-Jul-20 11:33N 36°05' E 014°47'1 1.4
2015-Jul-20 10:33N 36°04' E 014°47'1 1.4
2015-Jul-20 09:33N 36°02' E 014°48'1 1.4
2015-Jul-20 08:33N 36°01' E 014°48'1 1.5
2015-Jul-20 07:33N 35°60' E 014°48'1 1.3
2015-Jul-20 06:33N 36°00' E 014°47'2 2.1
2015-Jul-20 05:33N 36°02' E 014°45'2 2.1
2015-Jul-20 04:32N 36°04' E 014°44'2 1.8
2015-Jul-20 03:33N 36°05' E 014°43'1 1.1
2015-Jul-20 02:34N 36°07' E 014°43'2 2.2
2015-Jul-20 01:33N 36°06' E 014°46'2 1.8
2015-Jul-20 00:33N 36°06' E 014°48'2 2.0
2015-Jul-19 23:27N 36°03' E 014°48'2 2.1
2015-Jul-19 22:34N 36°02' E 014°48'2 1.9
2015-Jul-19 21:33N 35°60' E 014°48'1 0.9
2015-Jul-19 20:33N 35°59' E 014°47'2 1.4
2015-Jul-19 19:18N 36°00' E 014°45'1 1.7
2015-Jul-19 18:34N 36°01' E 014°44'  

Dump ship's entire track history